createdAt,value
2022-09-11T00:01:52.182Z,84.20
2022-09-11T00:04:54.805Z,84.50
2022-09-11T00:07:56.890Z,84.30
2022-09-11T00:11:03.419Z,84.50
2022-09-11T00:14:05.183Z,84.60
2022-09-11T00:17:07.047Z,84.40
2022-09-11T00:20:09.448Z,84.50
2022-09-11T00:23:11.333Z,84.10
2022-09-11T00:26:13.222Z,83.70
2022-09-11T00:29:15.096Z,83.50
2022-09-11T00:32:19.115Z,83.50
2022-09-11T00:35:21.321Z,83.10
2022-09-11T00:38:23.204Z,84.20
2022-09-11T00:41:37.602Z,83.20
2022-09-11T00:44:39.544Z,82.90
2022-09-11T00:47:42.559Z,82.80
2022-09-11T00:50:44.841Z,82.80
2022-09-11T00:53:48.899Z,83.10
2022-09-11T00:56:50.775Z,83.10
2022-09-11T00:59:55.788Z,82.80
2022-09-11T01:02:58.426Z,83.00
2022-09-11T01:06:01.145Z,83.00
2022-09-11T01:09:04.049Z,83.30
2022-09-11T01:12:10.340Z,82.90
2022-09-11T01:15:21.328Z,82.70
2022-09-11T01:18:32.890Z,82.80
2022-09-11T01:21:53.590Z,82.50
2022-09-11T01:25:39.890Z,82.70
2022-09-11T01:29:10.884Z,82.40
2022-09-11T01:32:23.737Z,82.90
2022-09-11T01:35:44.672Z,83.10
2022-09-11T01:38:47.753Z,82.50
2022-09-11T01:41:58.302Z,82.40
2022-09-11T01:45:01.201Z,82.70
2022-09-11T01:48:04.082Z,82.80
2022-09-11T01:51:09.697Z,82.80
2022-09-11T01:54:16.678Z,82.70
2022-09-11T01:57:26.491Z,83.00
2022-09-11T02:00:32.058Z,82.80
2022-09-11T02:03:39.545Z,82.90
2022-09-11T02:06:59.703Z,83.00
2022-09-11T02:10:06.405Z,82.70
2022-09-11T02:13:29.111Z,82.40
2022-09-11T02:16:53.160Z,82.30
2022-09-11T02:19:57.092Z,82.20
2022-09-11T02:22:59.177Z,82.80
2022-09-11T02:26:01.431Z,82.60
2022-09-11T02:29:03.717Z,82.20
2022-09-11T02:32:06.858Z,82.30
2022-09-11T02:35:09.914Z,82.30
2022-09-11T02:38:25.091Z,82.00
2022-09-11T02:41:59.515Z,82.20
2022-09-11T02:45:20.735Z,81.80
2022-09-11T02:49:03.095Z,82.40
2022-09-11T02:52:18.624Z,82.70
2022-09-11T02:55:25.336Z,83.10
2022-09-11T02:58:39.048Z,82.30
2022-09-11T03:01:52.420Z,82.90
2022-09-11T03:04:57.674Z,82.60
2022-09-11T03:07:59.775Z,82.60
2022-09-11T03:11:01.676Z,82.50
2022-09-11T03:14:04.984Z,83.00
2022-09-11T03:17:07.264Z,83.50
2022-09-11T03:20:11.309Z,83.70
2022-09-11T03:23:14.096Z,83.30
2022-09-11T03:26:19.713Z,83.50
2022-09-11T03:29:23.110Z,83.50
2022-09-11T03:32:27.657Z,83.60
2022-09-11T03:35:31.988Z,83.50
2022-09-11T03:38:33.841Z,83.70
2022-09-11T03:41:35.995Z,83.30
2022-09-11T03:44:40.333Z,83.30
2022-09-11T03:47:42.410Z,83.20
2022-09-11T03:50:51.292Z,83.10
2022-09-11T03:53:53.690Z,83.20
2022-09-11T03:56:56.180Z,83.40
2022-09-11T03:59:58.039Z,83.50
2022-09-11T04:02:59.917Z,83.20
2022-09-11T04:06:10.343Z,83.40
2022-09-11T04:09:12.720Z,83.40
2022-09-11T04:12:14.739Z,83.80
2022-09-11T04:15:16.926Z,83.90
2022-09-11T04:18:19.071Z,84.10
2022-09-11T04:21:21.035Z,84.00
2022-09-11T04:24:26.601Z,84.10
2022-09-11T04:27:28.590Z,84.20
2022-09-11T04:30:30.481Z,84.30
2022-09-11T04:33:32.416Z,84.50
2022-09-11T04:36:34.411Z,84.10
2022-09-11T04:39:36.915Z,84.60
2022-09-11T04:42:38.916Z,84.20
2022-09-11T04:45:40.857Z,83.90
2022-09-11T04:48:53.492Z,83.90
2022-09-11T04:52:03.086Z,83.90
2022-09-11T04:55:05.593Z,84.00
2022-09-11T04:58:07.476Z,84.10
2022-09-11T05:01:15.079Z,83.80
2022-09-11T05:04:21.695Z,83.90
2022-09-11T05:07:26.253Z,84.00
2022-09-11T05:10:30.354Z,83.70
2022-09-11T05:13:36.822Z,84.30
2022-09-11T05:16:40.129Z,84.00
2022-09-11T05:19:44.915Z,84.50
2022-09-11T05:22:47.004Z,84.10
2022-09-11T05:25:49.071Z,84.20
2022-09-11T05:28:59.855Z,84.40
2022-09-11T05:32:02.897Z,84.40
2022-09-11T05:35:07.557Z,83.90
2022-09-11T05:38:10.195Z,84.20
2022-09-11T05:41:13.548Z,84.20
2022-09-11T05:44:15.409Z,84.40
2022-09-11T05:47:17.920Z,84.10
2022-09-11T05:50:23.662Z,84.20
2022-09-11T05:53:28.119Z,84.10
2022-09-11T05:56:34.024Z,84.00
2022-09-11T05:59:40.238Z,84.10
2022-09-11T06:02:42.640Z,84.10
2022-09-11T06:05:44.996Z,84.00
2022-09-11T06:08:47.332Z,84.30
2022-09-11T06:11:49.208Z,84.00
2022-09-11T06:14:51.860Z,83.80
2022-09-11T06:17:53.930Z,83.70
2022-09-11T06:21:04.750Z,83.70
2022-09-11T06:24:16.696Z,83.20
2022-09-11T06:27:18.650Z,83.70
2022-09-11T06:30:25.278Z,83.00
2022-09-11T06:33:30.539Z,83.50
2022-09-11T06:36:32.443Z,83.30
2022-09-11T06:39:38.160Z,83.20
2022-09-11T06:42:40.596Z,83.30
2022-09-11T06:45:42.600Z,83.70
2022-09-11T06:48:45.989Z,83.70
2022-09-11T06:51:48.634Z,83.10
2022-09-11T06:54:50.402Z,83.40
2022-09-11T06:57:53.170Z,82.90
2022-09-11T07:01:07.804Z,82.60
2022-09-11T07:04:10.217Z,82.00
2022-09-11T07:07:12.228Z,81.90
2022-09-11T07:10:17.471Z,81.40
2022-09-11T07:13:24.360Z,80.90
2022-09-11T07:16:27.020Z,80.90
2022-09-11T07:19:30.367Z,80.80
2022-09-11T07:22:33.592Z,81.40
2022-09-11T07:25:37.072Z,80.50
2022-09-11T07:28:39.994Z,80.90
2022-09-11T07:31:42.061Z,80.60
2022-09-11T07:34:45.291Z,80.40
2022-09-11T07:37:51.104Z,80.30
2022-09-11T07:40:54.707Z,80.50
2022-09-11T07:43:59.767Z,80.20
2022-09-11T07:47:04.312Z,79.30
2022-09-11T07:50:11.942Z,80.10
2022-09-11T07:53:14.155Z,79.50
2022-09-11T07:56:24.720Z,78.50
2022-09-11T07:59:29.261Z,78.40
2022-09-11T08:02:31.568Z,77.30
2022-09-11T08:05:33.589Z,76.80
2022-09-11T08:08:35.612Z,74.20
2022-09-11T08:11:40.306Z,72.50
2022-09-11T08:14:42.774Z,69.30
2022-09-11T08:17:54.962Z,67.10
2022-09-11T08:21:07.626Z,63.60
2022-09-11T08:24:16.116Z,62.20
2022-09-11T08:27:20.056Z,62.90
2022-09-11T08:30:22.240Z,60.20
2022-09-11T08:33:24.431Z,61.40
2022-09-11T08:36:27.257Z,61.20
2022-09-11T08:39:29.336Z,61.60
2022-09-11T08:42:35.000Z,63.30
2022-09-11T08:45:37.167Z,63.10
2022-09-11T08:48:56.284Z,64.40
2022-09-11T08:52:01.885Z,66.40
2022-09-11T08:55:05.407Z,64.20
2022-09-11T08:58:31.370Z,60.40
2022-09-11T09:01:46.324Z,58.40
2022-09-11T09:05:13.180Z,57.00
2022-09-11T09:08:36.665Z,55.70
2022-09-11T09:12:03.357Z,55.40
2022-09-11T09:15:36.535Z,53.70
2022-09-11T09:18:50.909Z,55.40
2022-09-11T09:22:02.856Z,53.40
2022-09-11T09:25:12.489Z,52.10
2022-09-11T09:28:43.573Z,52.40
2022-09-11T09:31:48.281Z,54.60
2022-09-11T09:34:55.302Z,57.10
2022-09-11T09:37:57.943Z,55.40
2022-09-11T09:41:22.580Z,52.60
2022-09-11T09:44:41.157Z,54.10
2022-09-11T09:47:44.100Z,51.90
2022-09-11T09:50:47.404Z,51.00
2022-09-11T09:53:58.606Z,50.20
2022-09-11T09:57:04.972Z,50.20
2022-09-11T10:00:09.919Z,50.20
2022-09-11T10:03:18.938Z,50.00
2022-09-11T10:06:23.455Z,51.10
2022-09-11T10:09:30.294Z,49.70
2022-09-11T10:12:32.521Z,48.80
2022-09-11T10:15:43.491Z,48.70
2022-09-11T10:18:45.553Z,49.40
2022-09-11T10:21:47.437Z,50.30
2022-09-11T10:25:00.590Z,50.50
2022-09-11T10:28:07.145Z,51.90
2022-09-11T10:31:14.938Z,55.80
2022-09-11T10:34:19.067Z,56.50
2022-09-11T10:37:29.050Z,58.20
2022-09-11T10:40:31.191Z,58.70
2022-09-11T10:43:43.485Z,55.20
2022-09-11T10:46:45.449Z,52.30
2022-09-11T10:49:47.589Z,54.30
2022-09-11T11:03:22.623Z,59.20
2022-09-11T11:06:46.218Z,61.00
2022-09-11T11:10:14.669Z,62.40
2022-09-11T11:13:39.539Z,62.40
2022-09-11T11:17:07.715Z,62.30
2022-09-11T11:20:37.018Z,63.60
2022-09-11T11:23:45.950Z,63.10
2022-09-11T11:27:08.642Z,56.20
2022-09-11T11:30:22.411Z,55.30
2022-09-11T11:33:37.290Z,57.60
2022-09-11T11:36:51.100Z,55.50
2022-09-11T11:40:28.252Z,56.70
2022-09-11T11:43:34.417Z,57.40
2022-09-11T11:46:43.496Z,55.10
2022-09-11T11:50:23.045Z,56.00
2022-09-11T11:53:38.951Z,53.50
2022-09-11T11:56:51.036Z,54.00
2022-09-11T12:00:06.140Z,53.80
2022-09-11T12:03:18.241Z,55.70
2022-09-11T12:06:20.188Z,53.20
2022-09-11T12:09:22.215Z,56.00
2022-09-11T12:12:27.759Z,54.70
2022-09-11T12:15:31.323Z,55.40
2022-09-11T12:18:33.747Z,55.20
2022-09-11T12:21:40.613Z,54.30
2022-09-11T12:24:48.434Z,53.80
2022-09-11T12:28:41.468Z,53.00
2022-09-11T12:31:52.258Z,54.20
2022-09-11T12:35:11.355Z,54.10
2022-09-11T12:38:50.255Z,54.00
2022-09-11T12:41:52.252Z,55.60
2022-09-11T12:44:54.170Z,53.70
2022-09-11T12:48:10.006Z,53.50
2022-09-11T12:51:42.007Z,54.40
2022-09-11T12:54:43.995Z,51.40
2022-09-11T12:57:46.197Z,51.10
2022-09-11T13:00:50.931Z,50.90
2022-09-11T13:04:01.395Z,51.50
2022-09-11T13:07:06.487Z,54.80
2022-09-11T13:10:24.503Z,55.70
2022-09-11T13:13:36.351Z,52.40
2022-09-11T13:16:44.986Z,50.60
2022-09-11T13:19:46.827Z,53.90
2022-09-11T13:22:52.737Z,51.40
2022-09-11T13:25:58.331Z,53.30
2022-09-11T13:29:01.076Z,52.80
2022-09-11T13:32:13.461Z,54.50
2022-09-11T13:35:23.896Z,54.10
2022-09-11T13:38:28.954Z,55.40
2022-09-11T13:41:36.744Z,56.00
2022-09-11T13:44:42.111Z,57.30
2022-09-11T13:47:44.022Z,56.50
2022-09-11T13:50:46.208Z,56.10
2022-09-11T13:53:58.676Z,54.50
2022-09-11T13:57:00.745Z,60.40
2022-09-11T14:00:02.710Z,58.10
2022-09-11T14:03:25.903Z,56.70
2022-09-11T14:06:27.761Z,58.90
2022-09-11T14:09:29.864Z,58.90
2022-09-11T14:12:34.568Z,56.60
2022-09-11T14:15:43.714Z,56.90
2022-09-11T14:19:03.177Z,59.60
2022-09-11T14:22:24.814Z,57.10
2022-09-11T14:25:27.069Z,58.70
2022-09-11T14:28:41.993Z,57.10
2022-09-11T14:31:43.968Z,58.20
2022-09-11T14:34:46.433Z,57.30
2022-09-11T14:37:48.409Z,58.80
2022-09-11T14:40:57.707Z,57.00
2022-09-11T14:43:59.565Z,57.40
2022-09-11T14:47:01.753Z,60.10
2022-09-11T14:50:03.863Z,58.80
2022-09-11T14:53:05.862Z,59.70
2022-09-11T14:56:07.769Z,58.60
2022-09-11T14:59:09.481Z,62.90
2022-09-11T15:02:21.523Z,62.40
2022-09-11T15:05:23.412Z,61.60
2022-09-11T15:08:25.950Z,64.00
2022-09-11T15:11:27.994Z,63.70
2022-09-11T15:14:54.431Z,61.30
2022-09-11T15:17:52.272Z,61.30
2022-09-11T15:20:54.960Z,61.40
2022-09-11T15:23:56.779Z,64.00
2022-09-11T15:27:03.208Z,65.90
2022-09-11T15:30:07.733Z,63.80
2022-09-11T15:33:10.590Z,64.20
2022-09-11T15:36:12.433Z,64.10
2022-09-11T15:39:16.279Z,63.80
2022-09-11T15:42:18.695Z,65.60
2022-09-11T15:45:20.609Z,67.70
2022-09-11T15:48:22.439Z,66.70
2022-09-11T15:51:24.311Z,66.00
2022-09-11T15:54:26.838Z,63.60
2022-09-11T15:57:29.823Z,64.30
2022-09-11T16:00:33.888Z,61.80
2022-09-11T16:03:35.772Z,61.30
2022-09-11T16:06:40.854Z,59.40
2022-09-11T16:09:42.709Z,60.00
2022-09-11T16:12:44.662Z,61.40
2022-09-11T16:15:46.712Z,57.80
2022-09-11T16:18:48.577Z,58.90
2022-09-11T16:21:50.308Z,58.60
2022-09-11T16:24:52.735Z,58.40
2022-09-11T16:27:59.548Z,59.00
2022-09-11T16:31:01.889Z,59.40
2022-09-11T16:34:04.560Z,59.10
2022-09-11T16:37:06.627Z,60.80
2022-09-11T16:43:21.379Z,60.60
2022-09-11T16:46:26.053Z,59.40
2022-09-11T16:49:28.022Z,59.90
2022-09-11T16:52:29.882Z,59.80
2022-09-11T16:55:31.923Z,60.00
2022-09-11T16:58:34.210Z,59.40
2022-09-11T17:01:36.416Z,63.80
2022-09-11T17:04:38.350Z,66.00
2022-09-11T17:07:40.116Z,67.10
2022-09-11T17:10:46.546Z,67.80
2022-09-11T17:13:50.926Z,66.70
2022-09-11T17:16:53.712Z,66.00
2022-09-11T17:19:55.546Z,67.80
2022-09-11T17:22:58.309Z,67.70
2022-09-11T17:26:00.471Z,67.00
2022-09-11T17:29:03.456Z,66.70
2022-09-11T17:32:26.594Z,68.00
2022-09-11T17:35:28.744Z,68.80
2022-09-11T17:38:31.581Z,69.60
2022-09-11T17:41:34.055Z,70.70
2022-09-11T17:44:36.238Z,72.00
2022-09-11T17:47:38.798Z,72.30
2022-09-11T17:50:40.703Z,72.60
2022-09-11T17:53:46.606Z,73.70
2022-09-11T17:56:48.499Z,74.50
2022-09-11T17:59:50.427Z,74.20
2022-09-11T18:02:52.346Z,74.00
2022-09-11T18:05:54.367Z,74.50
2022-09-11T18:08:59.912Z,74.60
2022-09-11T18:12:02.108Z,75.00
2022-09-11T18:15:04.469Z,75.70
2022-09-11T18:18:06.362Z,76.50
2022-09-11T18:21:10.751Z,76.70
2022-09-11T18:24:12.857Z,76.40
2022-09-11T18:27:14.794Z,75.70
2022-09-11T18:30:17.614Z,75.50
2022-09-11T18:33:19.440Z,75.90
2022-09-11T18:36:24.936Z,76.30
2022-09-11T18:39:27.827Z,77.60
2022-09-11T18:42:29.720Z,77.20
2022-09-11T18:45:31.559Z,77.80
2022-09-11T18:48:33.498Z,77.90
2022-09-11T18:51:36.231Z,78.70
2022-09-11T18:54:38.078Z,78.30
2022-09-11T18:57:42.339Z,79.10
2022-09-11T19:00:46.001Z,79.20
2022-09-11T19:03:48.046Z,78.90
2022-09-11T19:06:50.066Z,79.40
2022-09-11T19:09:51.843Z,79.30
2022-09-11T19:12:53.751Z,79.50
2022-09-11T19:16:00.370Z,79.40
2022-09-11T19:19:02.434Z,80.40
2022-09-11T19:22:04.297Z,80.50
2022-09-11T19:25:07.266Z,80.80
2022-09-11T19:28:09.278Z,81.20
2022-09-11T19:31:11.989Z,80.40
2022-09-11T19:34:14.036Z,79.50
2022-09-11T19:37:16.337Z,79.70
2022-09-11T19:40:18.251Z,79.60
2022-09-11T19:43:20.423Z,79.10
2022-09-11T19:46:22.983Z,80.00
2022-09-11T19:49:25.219Z,79.50
2022-09-11T19:52:29.796Z,80.10
2022-09-11T19:55:34.755Z,80.70
2022-09-11T19:58:39.131Z,80.40
2022-09-11T20:01:41.115Z,80.00
2022-09-11T20:04:42.964Z,80.20
2022-09-11T20:07:44.993Z,79.80
2022-09-11T20:10:47.980Z,79.50
2022-09-11T20:13:49.811Z,79.20
2022-09-11T20:16:51.873Z,79.20
2022-09-11T20:19:56.679Z,79.40
2022-09-11T20:23:00.310Z,79.30
2022-09-11T20:26:16.816Z,79.90
2022-09-11T20:29:19.115Z,79.70
2022-09-11T20:32:20.965Z,79.70
2022-09-11T20:35:22.837Z,80.40
2022-09-11T20:38:24.870Z,81.40
2022-09-11T20:41:30.342Z,81.40
2022-09-11T20:44:36.777Z,81.50
2022-09-11T20:47:39.103Z,80.90
2022-09-11T20:50:41.050Z,80.70
2022-09-11T20:53:43.180Z,80.30
2022-09-11T20:56:45.136Z,80.10
2022-09-11T20:59:47.026Z,79.90
2022-09-11T21:02:48.946Z,79.70
2022-09-11T21:05:54.242Z,79.70
2022-09-11T21:08:58.463Z,80.50
2022-09-11T21:12:00.365Z,80.10
2022-09-11T21:15:03.904Z,80.20
2022-09-11T21:18:06.445Z,80.20
2022-09-11T21:21:08.341Z,79.80
2022-09-11T21:24:13.424Z,80.30
2022-09-11T21:27:15.306Z,80.20
2022-09-11T21:30:17.175Z,80.30
2022-09-11T21:33:19.174Z,80.30
2022-09-11T21:36:21.176Z,80.40
2022-09-11T21:39:23.279Z,80.50
2022-09-11T21:42:25.581Z,81.00
2022-09-11T21:45:27.398Z,80.90
2022-09-11T21:48:32.431Z,81.10
2022-09-11T21:51:37.429Z,80.60
2022-09-11T21:54:39.303Z,80.50
2022-09-11T21:57:41.244Z,80.60
2022-09-11T22:00:43.911Z,80.60
2022-09-11T22:03:46.924Z,80.60
2022-09-11T22:06:48.825Z,80.50
2022-09-11T22:09:50.675Z,80.70
2022-09-11T22:12:52.672Z,80.70
2022-09-11T22:15:54.653Z,80.70
2022-09-11T22:18:56.619Z,80.50
2022-09-11T22:21:58.597Z,80.10
2022-09-11T22:25:00.429Z,80.60
2022-09-11T22:28:07.057Z,80.80
2022-09-11T22:31:15.662Z,80.60
2022-09-11T22:34:18.354Z,80.40
2022-09-11T22:37:20.258Z,80.50
2022-09-11T22:40:22.070Z,80.80
2022-09-11T22:43:23.946Z,80.80
2022-09-11T22:46:25.860Z,80.80
2022-09-11T22:49:27.704Z,81.10
2022-09-11T22:52:29.559Z,81.30
2022-09-11T22:55:31.384Z,80.90
2022-09-11T22:58:33.377Z,81.50
2022-09-11T23:01:36.199Z,81.20
2022-09-11T23:04:38.036Z,81.00
2022-09-11T23:07:39.862Z,81.10
2022-09-11T23:10:43.142Z,80.90
2022-09-11T23:13:45.089Z,81.10
2022-09-11T23:16:47.035Z,80.90
2022-09-11T23:19:48.869Z,80.60
2022-09-11T23:22:52.928Z,80.50
2022-09-11T23:25:54.706Z,80.60
2022-09-11T23:28:58.553Z,80.60
2022-09-11T23:32:00.478Z,81.30
2022-09-11T23:35:02.329Z,80.90
2022-09-11T23:38:07.281Z,81.30
2022-09-11T23:41:09.315Z,81.30
2022-09-11T23:44:11.252Z,81.30
2022-09-11T23:47:13.075Z,81.50
2022-09-11T23:50:15.989Z,81.80
2022-09-11T23:53:17.802Z,81.70
2022-09-11T23:56:20.106Z,81.60
2022-09-11T23:59:21.858Z,81.80
